sensor_id;sensor_type;location;lat;lon;timestamp;temperature;humidity
28010;DHT22;15334;49.494;8.410;2022-07-25T00:01:20;22.90;99.90
28010;DHT22;15334;49.494;8.410;2022-07-25T00:03:49;22.90;99.90
28010;DHT22;15334;49.494;8.410;2022-07-25T00:06:18;22.90;99.90
28010;DHT22;15334;49.494;8.410;2022-07-25T00:08:46;22.90;99.90
28010;DHT22;15334;49.494;8.410;2022-07-25T00:11:15;22.80;99.90
28010;DHT22;15334;49.494;8.410;2022-07-25T00:13:43;22.80;99.90
28010;DHT22;15334;49.494;8.410;2022-07-25T00:16:11;22.70;99.90
28010;DHT22;15334;49.494;8.410;2022-07-25T00:18:39;22.70;99.90
28010;DHT22;15334;49.494;8.410;2022-07-25T00:21:07;22.70;99.90
28010;DHT22;15334;49.494;8.410;2022-07-25T00:23:37;22.70;99.90
28010;DHT22;15334;49.494;8.410;2022-07-25T00:26:05;22.60;99.90
28010;DHT22;15334;49.494;8.410;2022-07-25T00:28:33;22.60;99.90
28010;DHT22;15334;49.494;8.410;2022-07-25T00:31:01;22.50;99.90
28010;DHT22;15334;49.494;8.410;2022-07-25T00:33:29;22.50;99.90
28010;DHT22;15334;49.494;8.410;2022-07-25T00:35:58;22.50;99.90
28010;DHT22;15334;49.494;8.410;2022-07-25T00:38:26;22.40;99.90
28010;DHT22;15334;49.494;8.410;2022-07-25T00:40:58;22.40;99.90
28010;DHT22;15334;49.494;8.410;2022-07-25T00:43:26;22.40;99.90
28010;DHT22;15334;49.494;8.410;2022-07-25T00:45:54;22.30;99.90
28010;DHT22;15334;49.494;8.410;2022-07-25T00:48:25;22.20;99.90
28010;DHT22;15334;49.494;8.410;2022-07-25T00:50:53;22.10;99.90
28010;DHT22;15334;49.494;8.410;2022-07-25T00:53:22;22.10;99.90
28010;DHT22;15334;49.494;8.410;2022-07-25T00:55:51;22.00;99.90
28010;DHT22;15334;49.494;8.410;2022-07-25T00:58:20;22.00;99.90
28010;DHT22;15334;49.494;8.410;2022-07-25T01:00:48;22.00;99.90
28010;DHT22;15334;49.494;8.410;2022-07-25T01:03:17;22.00;99.90
28010;DHT22;15334;49.494;8.410;2022-07-25T01:05:45;21.90;99.90
28010;DHT22;15334;49.494;8.410;2022-07-25T01:08:20;21.90;99.90
28010;DHT22;15334;49.494;8.410;2022-07-25T01:10:49;21.90;99.90
28010;DHT22;15334;49.494;8.410;2022-07-25T01:13:17;21.80;99.90
28010;DHT22;15334;49.494;8.410;2022-07-25T01:15:48;21.80;99.90
28010;DHT22;15334;49.494;8.410;2022-07-25T01:18:16;21.70;99.90
28010;DHT22;15334;49.494;8.410;2022-07-25T01:20:46;21.70;99.90
28010;DHT22;15334;49.494;8.410;2022-07-25T01:23:14;21.70;99.90
28010;DHT22;15334;49.494;8.410;2022-07-25T01:25:42;21.70;99.90
28010;DHT22;15334;49.494;8.410;2022-07-25T01:28:10;21.70;99.90
28010;DHT22;15334;49.494;8.410;2022-07-25T01:30:39;21.50;99.90
28010;DHT22;15334;49.494;8.410;2022-07-25T01:33:07;21.50;99.90
28010;DHT22;15334;49.494;8.410;2022-07-25T01:35:35;21.50;99.90
28010;DHT22;15334;49.494;8.410;2022-07-25T01:38:10;21.50;99.90
28010;DHT22;15334;49.494;8.410;2022-07-25T01:40:40;21.50;99.90
28010;DHT22;15334;49.494;8.410;2022-07-25T01:43:09;21.50;99.90
28010;DHT22;15334;49.494;8.410;2022-07-25T01:45:37;21.50;99.90
28010;DHT22;15334;49.494;8.410;2022-07-25T01:48:05;21.50;99.90
28010;DHT22;15334;49.494;8.410;2022-07-25T01:50:33;21.50;99.90
28010;DHT22;15334;49.494;8.410;2022-07-25T01:53:02;21.50;99.90
28010;DHT22;15334;49.494;8.410;2022-07-25T01:55:31;21.50;99.90
28010;DHT22;15334;49.494;8.410;2022-07-25T01:57:59;21.40;99.90
28010;DHT22;15334;49.494;8.410;2022-07-25T02:00:28;21.30;99.90
28010;DHT22;15334;49.494;8.410;2022-07-25T02:02:56;21.30;99.90
28010;DHT22;15334;49.494;8.410;2022-07-25T02:05:38;21.30;99.90
28010;DHT22;15334;49.494;8.410;2022-07-25T02:08:06;21.30;99.90
28010;DHT22;15334;49.494;8.410;2022-07-25T02:10:38;21.20;99.90
28010;DHT22;15334;49.494;8.410;2022-07-25T02:13:06;21.20;99.90
28010;DHT22;15334;49.494;8.410;2022-07-25T02:15:35;21.20;99.90
28010;DHT22;15334;49.494;8.410;2022-07-25T02:18:03;21.10;99.90
28010;DHT22;15334;49.494;8.410;2022-07-25T02:20:31;21.10;99.90
28010;DHT22;15334;49.494;8.410;2022-07-25T02:22:59;21.10;99.90
28010;DHT22;15334;49.494;8.410;2022-07-25T02:25:27;21.10;99.90
28010;DHT22;15334;49.494;8.410;2022-07-25T02:27:57;21.00;99.90
28010;DHT22;15334;49.494;8.410;2022-07-25T02:30:27;20.90;99.90
28010;DHT22;15334;49.494;8.410;2022-07-25T02:32:55;20.90;99.90
28010;DHT22;15334;49.494;8.410;2022-07-25T02:35:23;20.80;99.90
28010;DHT22;15334;49.494;8.410;2022-07-25T02:37:53;20.80;99.90
28010;DHT22;15334;49.494;8.410;2022-07-25T02:40:23;20.80;99.90
28010;DHT22;15334;49.494;8.410;2022-07-25T02:42:52;20.80;99.90
28010;DHT22;15334;49.494;8.410;2022-07-25T02:45:21;20.80;99.90
28010;DHT22;15334;49.494;8.410;2022-07-25T02:47:49;20.80;99.90
28010;DHT22;15334;49.494;8.410;2022-07-25T02:50:17;20.70;99.90
28010;DHT22;15334;49.494;8.410;2022-07-25T02:52:45;20.70;99.90
28010;DHT22;15334;49.494;8.410;2022-07-25T02:55:13;20.70;99.90
28010;DHT22;15334;49.494;8.410;2022-07-25T02:57:41;20.70;99.90
28010;DHT22;15334;49.494;8.410;2022-07-25T03:00:10;20.70;99.90
28010;DHT22;15334;49.494;8.410;2022-07-25T03:02:43;20.60;99.90
28010;DHT22;15334;49.494;8.410;2022-07-25T03:05:11;20.60;99.90
28010;DHT22;15334;49.494;8.410;2022-07-25T03:07:41;20.50;99.90
28010;DHT22;15334;49.494;8.410;2022-07-25T03:10:11;20.50;99.90
28010;DHT22;15334;49.494;8.410;2022-07-25T03:12:41;20.50;99.90
28010;DHT22;15334;49.494;8.410;2022-07-25T03:15:11;20.50;99.90
28010;DHT22;15334;49.494;8.410;2022-07-25T03:17:40;20.50;99.90
28010;DHT22;15334;49.494;8.410;2022-07-25T03:20:09;20.50;99.90
28010;DHT22;15334;49.494;8.410;2022-07-25T03:22:37;20.50;99.90
28010;DHT22;15334;49.494;8.410;2022-07-25T03:25:06;20.50;99.90
28010;DHT22;15334;49.494;8.410;2022-07-25T03:27:47;20.50;99.90
28010;DHT22;15334;49.494;8.410;2022-07-25T03:30:17;20.50;99.90
28010;DHT22;15334;49.494;8.410;2022-07-25T03:32:47;20.40;99.90
28010;DHT22;15334;49.494;8.410;2022-07-25T03:35:19;20.40;99.90
28010;DHT22;15334;49.494;8.410;2022-07-25T03:37:47;20.40;99.90
28010;DHT22;15334;49.494;8.410;2022-07-25T03:40:16;20.40;99.90
28010;DHT22;15334;49.494;8.410;2022-07-25T03:42:44;20.40;99.90
28010;DHT22;15334;49.494;8.410;2022-07-25T03:45:12;20.30;99.90
28010;DHT22;15334;49.494;8.410;2022-07-25T03:47:41;20.30;99.90
28010;DHT22;15334;49.494;8.410;2022-07-25T03:50:10;20.30;99.90
28010;DHT22;15334;49.494;8.410;2022-07-25T03:52:38;20.30;99.90
28010;DHT22;15334;49.494;8.410;2022-07-25T03:55:08;20.30;99.90
28010;DHT22;15334;49.494;8.410;2022-07-25T03:57:41;20.30;99.90
28010;DHT22;15334;49.494;8.410;2022-07-25T04:00:10;20.40;99.90
28010;DHT22;15334;49.494;8.410;2022-07-25T04:02:38;20.30;99.90
28010;DHT22;15334;49.494;8.410;2022-07-25T04:05:07;20.40;99.90
28010;DHT22;15334;49.494;8.410;2022-07-25T04:07:37;20.40;99.90
28010;DHT22;15334;49.494;8.410;2022-07-25T04:10:08;20.40;99.90
28010;DHT22;15334;49.494;8.410;2022-07-25T04:12:37;20.40;99.90
28010;DHT22;15334;49.494;8.410;2022-07-25T04:15:06;20.50;99.90
28010;DHT22;15334;49.494;8.410;2022-07-25T04:17:34;20.50;99.90
28010;DHT22;15334;49.494;8.410;2022-07-25T04:20:06;20.50;99.90
28010;DHT22;15334;49.494;8.410;2022-07-25T04:22:34;20.60;99.90
28010;DHT22;15334;49.494;8.410;2022-07-25T04:25:05;20.60;99.90
28010;DHT22;15334;49.494;8.410;2022-07-25T04:27:33;20.70;99.90
28010;DHT22;15334;49.494;8.410;2022-07-25T04:30:01;20.70;99.90
28010;DHT22;15334;49.494;8.410;2022-07-25T04:32:29;20.70;99.90
28010;DHT22;15334;49.494;8.410;2022-07-25T04:34:57;20.80;99.90
28010;DHT22;15334;49.494;8.410;2022-07-25T04:37:25;20.90;99.90
28010;DHT22;15334;49.494;8.410;2022-07-25T04:39:53;21.00;99.90
28010;DHT22;15334;49.494;8.410;2022-07-25T04:42:23;21.00;99.90
28010;DHT22;15334;49.494;8.410;2022-07-25T04:44:51;21.10;99.90
28010;DHT22;15334;49.494;8.410;2022-07-25T04:47:22;21.20;99.90
28010;DHT22;15334;49.494;8.410;2022-07-25T04:49:50;21.20;99.90
28010;DHT22;15334;49.494;8.410;2022-07-25T04:52:19;21.30;99.90
28010;DHT22;15334;49.494;8.410;2022-07-25T04:54:47;21.40;99.90
28010;DHT22;15334;49.494;8.410;2022-07-25T04:57:15;21.50;99.90
28010;DHT22;15334;49.494;8.410;2022-07-25T04:59:45;21.60;99.90
28010;DHT22;15334;49.494;8.410;2022-07-25T05:02:13;21.80;99.90
28010;DHT22;15334;49.494;8.410;2022-07-25T05:04:41;21.90;99.90
28010;DHT22;15334;49.494;8.410;2022-07-25T05:07:11;22.00;99.90
28010;DHT22;15334;49.494;8.410;2022-07-25T05:09:40;22.20;99.90
28010;DHT22;15334;49.494;8.410;2022-07-25T05:12:09;22.30;99.90
28010;DHT22;15334;49.494;8.410;2022-07-25T05:14:37;22.40;99.90
28010;DHT22;15334;49.494;8.410;2022-07-25T05:17:06;22.50;99.90
28010;DHT22;15334;49.494;8.410;2022-07-25T05:19:34;22.70;99.90
28010;DHT22;15334;49.494;8.410;2022-07-25T05:22:03;22.80;99.90
28010;DHT22;15334;49.494;8.410;2022-07-25T05:24:32;22.90;99.90
28010;DHT22;15334;49.494;8.410;2022-07-25T05:27:00;23.00;99.90
28010;DHT22;15334;49.494;8.410;2022-07-25T05:29:29;23.20;99.90
28010;DHT22;15334;49.494;8.410;2022-07-25T05:31:57;23.30;99.90
28010;DHT22;15334;49.494;8.410;2022-07-25T05:34:27;23.40;99.90
28010;DHT22;15334;49.494;8.410;2022-07-25T05:36:55;23.60;99.90
28010;DHT22;15334;49.494;8.410;2022-07-25T05:39:24;23.80;99.90
28010;DHT22;15334;49.494;8.410;2022-07-25T05:41:53;24.00;99.90
28010;DHT22;15334;49.494;8.410;2022-07-25T05:44:21;24.20;99.90
28010;DHT22;15334;49.494;8.410;2022-07-25T05:46:49;24.40;99.90
28010;DHT22;15334;49.494;8.410;2022-07-25T05:49:17;24.60;99.90
28010;DHT22;15334;49.494;8.410;2022-07-25T05:51:47;24.70;99.90
28010;DHT22;15334;49.494;8.410;2022-07-25T05:54:15;24.70;99.90
28010;DHT22;15334;49.494;8.410;2022-07-25T05:56:43;24.80;99.90
28010;DHT22;15334;49.494;8.410;2022-07-25T05:59:11;24.90;99.90
28010;DHT22;15334;49.494;8.410;2022-07-25T06:01:39;24.90;99.90
28010;DHT22;15334;49.494;8.410;2022-07-25T06:04:07;25.00;99.90
28010;DHT22;15334;49.494;8.410;2022-07-25T06:06:36;24.90;99.90
28010;DHT22;15334;49.494;8.410;2022-07-25T06:09:05;24.80;99.90
28010;DHT22;15334;49.494;8.410;2022-07-25T06:11:34;24.60;99.90
28010;DHT22;15334;49.494;8.410;2022-07-25T06:14:20;24.60;99.90
28010;DHT22;15334;49.494;8.410;2022-07-25T06:16:48;24.60;99.90
28010;DHT22;15334;49.494;8.410;2022-07-25T06:19:16;24.70;99.90
28010;DHT22;15334;49.494;8.410;2022-07-25T06:21:45;24.80;99.90
28010;DHT22;15334;49.494;8.410;2022-07-25T06:24:14;24.90;99.90
28010;DHT22;15334;49.494;8.410;2022-07-25T06:26:43;24.90;99.90
28010;DHT22;15334;49.494;8.410;2022-07-25T06:29:11;25.00;99.90
28010;DHT22;15334;49.494;8.410;2022-07-25T06:31:39;25.20;99.90
28010;DHT22;15334;49.494;8.410;2022-07-25T06:34:11;25.10;99.90
28010;DHT22;15334;49.494;8.410;2022-07-25T06:36:39;24.90;99.90
28010;DHT22;15334;49.494;8.410;2022-07-25T06:39:07;24.90;99.90
28010;DHT22;15334;49.494;8.410;2022-07-25T06:41:38;24.70;99.90
28010;DHT22;15334;49.494;8.410;2022-07-25T06:44:06;24.80;99.90
28010;DHT22;15334;49.494;8.410;2022-07-25T06:46:36;24.80;99.90
28010;DHT22;15334;49.494;8.410;2022-07-25T06:49:04;24.90;99.90
28010;DHT22;15334;49.494;8.410;2022-07-25T06:51:33;25.00;99.90
28010;DHT22;15334;49.494;8.410;2022-07-25T06:54:01;25.10;99.90
28010;DHT22;15334;49.494;8.410;2022-07-25T06:56:30;25.20;99.90
28010;DHT22;15334;49.494;8.410;2022-07-25T06:59:00;25.40;99.90
28010;DHT22;15334;49.494;8.410;2022-07-25T07:01:28;25.50;99.90
28010;DHT22;15334;49.494;8.410;2022-07-25T07:03:56;25.50;99.90
28010;DHT22;15334;49.494;8.410;2022-07-25T07:06:24;25.60;99.90
28010;DHT22;15334;49.494;8.410;2022-07-25T07:08:54;25.60;99.90
28010;DHT22;15334;49.494;8.410;2022-07-25T07:11:22;25.60;99.90
28010;DHT22;15334;49.494;8.410;2022-07-25T07:13:51;25.60;99.90
28010;DHT22;15334;49.494;8.410;2022-07-25T07:16:20;25.70;99.90
28010;DHT22;15334;49.494;8.410;2022-07-25T07:18:49;25.80;99.90
28010;DHT22;15334;49.494;8.410;2022-07-25T07:21:17;26.00;99.90
28010;DHT22;15334;49.494;8.410;2022-07-25T07:23:47;26.10;99.90
28010;DHT22;15334;49.494;8.410;2022-07-25T07:26:19;26.10;99.90
28010;DHT22;15334;49.494;8.410;2022-07-25T07:28:47;26.30;99.90
28010;DHT22;15334;49.494;8.410;2022-07-25T07:31:15;26.30;99.90
28010;DHT22;15334;49.494;8.410;2022-07-25T07:33:45;26.30;99.90
28010;DHT22;15334;49.494;8.410;2022-07-25T07:36:13;26.50;99.90
28010;DHT22;15334;49.494;8.410;2022-07-25T07:38:42;26.60;99.90
28010;DHT22;15334;49.494;8.410;2022-07-25T07:41:11;26.60;99.90
28010;DHT22;15334;49.494;8.410;2022-07-25T07:43:39;26.50;99.90
28010;DHT22;15334;49.494;8.410;2022-07-25T07:46:07;26.50;99.90
28010;DHT22;15334;49.494;8.410;2022-07-25T07:48:35;26.60;99.90
28010;DHT22;15334;49.494;8.410;2022-07-25T07:51:05;26.70;99.90
28010;DHT22;15334;49.494;8.410;2022-07-25T07:53:33;26.80;99.90
28010;DHT22;15334;49.494;8.410;2022-07-25T07:56:19;27.00;99.90
28010;DHT22;15334;49.494;8.410;2022-07-25T07:58:47;27.20;99.90
28010;DHT22;15334;49.494;8.410;2022-07-25T08:01:16;27.30;99.90
28010;DHT22;15334;49.494;8.410;2022-07-25T08:03:44;27.50;99.90
28010;DHT22;15334;49.494;8.410;2022-07-25T08:06:14;27.60;99.90
28010;DHT22;15334;49.494;8.410;2022-07-25T08:08:42;27.70;99.90
28010;DHT22;15334;49.494;8.410;2022-07-25T08:11:10;27.80;99.90
28010;DHT22;15334;49.494;8.410;2022-07-25T08:13:38;27.80;99.90
28010;DHT22;15334;49.494;8.410;2022-07-25T08:16:07;27.90;99.90
28010;DHT22;15334;49.494;8.410;2022-07-25T08:18:38;28.00;99.90
28010;DHT22;15334;49.494;8.410;2022-07-25T08:21:06;28.10;99.90
28010;DHT22;15334;49.494;8.410;2022-07-25T08:23:36;28.30;99.90
28010;DHT22;15334;49.494;8.410;2022-07-25T08:26:05;28.40;99.90
28010;DHT22;15334;49.494;8.410;2022-07-25T08:28:33;28.60;99.90
28010;DHT22;15334;49.494;8.410;2022-07-25T08:31:01;28.70;99.90
28010;DHT22;15334;49.494;8.410;2022-07-25T08:33:30;28.90;99.90
28010;DHT22;15334;49.494;8.410;2022-07-25T08:35:58;29.00;99.90
28010;DHT22;15334;49.494;8.410;2022-07-25T08:38:27;29.20;99.90
28010;DHT22;15334;49.494;8.410;2022-07-25T08:40:57;29.40;99.90
28010;DHT22;15334;49.494;8.410;2022-07-25T08:43:25;29.50;99.90
28010;DHT22;15334;49.494;8.410;2022-07-25T08:45:54;29.60;99.90
28010;DHT22;15334;49.494;8.410;2022-07-25T08:48:24;29.80;99.90
28010;DHT22;15334;49.494;8.410;2022-07-25T08:50:54;30.00;99.90
28010;DHT22;15334;49.494;8.410;2022-07-25T08:53:23;30.10;99.90
28010;DHT22;15334;49.494;8.410;2022-07-25T08:56:03;30.30;99.90
28010;DHT22;15334;49.494;8.410;2022-07-25T08:58:40;30.40;99.90
28010;DHT22;15334;49.494;8.410;2022-07-25T09:01:10;30.50;99.90
28010;DHT22;15334;49.494;8.410;2022-07-25T09:03:40;30.50;99.90
28010;DHT22;15334;49.494;8.410;2022-07-25T09:06:16;30.70;99.90
28010;DHT22;15334;49.494;8.410;2022-07-25T09:08:55;30.70;99.90
28010;DHT22;15334;49.494;8.410;2022-07-25T09:11:32;30.80;99.90
28010;DHT22;15334;49.494;8.410;2022-07-25T09:14:02;30.90;99.90
28010;DHT22;15334;49.494;8.410;2022-07-25T09:16:33;31.10;99.90
28010;DHT22;15334;49.494;8.410;2022-07-25T09:19:09;31.20;99.90
28010;DHT22;15334;49.494;8.410;2022-07-25T09:21:40;31.30;99.90
28010;DHT22;15334;49.494;8.410;2022-07-25T09:24:13;31.40;99.50
28010;DHT22;15334;49.494;8.410;2022-07-25T09:26:48;31.50;99.60
28010;DHT22;15334;49.494;8.410;2022-07-25T09:29:20;31.60;98.30
28010;DHT22;15334;49.494;8.410;2022-07-25T09:31:48;31.70;99.40
28010;DHT22;15334;49.494;8.410;2022-07-25T09:34:28;31.80;99.00
28010;DHT22;15334;49.494;8.410;2022-07-25T09:36:57;32.00;99.00
28010;DHT22;15334;49.494;8.410;2022-07-25T09:39:36;32.20;98.70
28010;DHT22;15334;49.494;8.410;2022-07-25T09:42:18;32.30;96.50
28010;DHT22;15334;49.494;8.410;2022-07-25T09:44:58;32.40;97.40
28010;DHT22;15334;49.494;8.410;2022-07-25T09:47:27;32.40;97.90
28010;DHT22;15334;49.494;8.410;2022-07-25T09:49:56;32.40;95.90
28010;DHT22;15334;49.494;8.410;2022-07-25T09:52:24;32.50;95.80
28010;DHT22;15334;49.494;8.410;2022-07-25T09:54:53;32.60;95.80
28010;DHT22;15334;49.494;8.410;2022-07-25T09:57:38;32.80;96.10
28010;DHT22;15334;49.494;8.410;2022-07-25T10:00:07;33.00;95.60
28010;DHT22;15334;49.494;8.410;2022-07-25T10:02:42;32.90;94.40
28010;DHT22;15334;49.494;8.410;2022-07-25T10:05:15;32.90;95.00
28010;DHT22;15334;49.494;8.410;2022-07-25T10:07:47;33.20;95.50
28010;DHT22;15334;49.494;8.410;2022-07-25T10:10:27;33.60;93.90
28010;DHT22;15334;49.494;8.410;2022-07-25T10:13:01;33.70;92.60
28010;DHT22;15334;49.494;8.410;2022-07-25T10:15:47;33.50;94.00
28010;DHT22;15334;49.494;8.410;2022-07-25T10:18:18;33.50;93.50
28010;DHT22;15334;49.494;8.410;2022-07-25T10:20:47;33.50;94.50
28010;DHT22;15334;49.494;8.410;2022-07-25T10:23:17;33.40;93.50
28010;DHT22;15334;49.494;8.410;2022-07-25T10:25:45;33.30;93.50
28010;DHT22;15334;49.494;8.410;2022-07-25T10:28:17;33.20;94.10
28010;DHT22;15334;49.494;8.410;2022-07-25T10:30:46;33.30;94.20
28010;DHT22;15334;49.494;8.410;2022-07-25T10:33:24;33.30;93.50
28010;DHT22;15334;49.494;8.410;2022-07-25T10:35:52;33.50;94.50
28010;DHT22;15334;49.494;8.410;2022-07-25T10:38:23;33.60;94.10
28010;DHT22;15334;49.494;8.410;2022-07-25T10:40:51;33.70;92.20
28010;DHT22;15334;49.494;8.410;2022-07-25T10:43:22;33.80;91.30
28010;DHT22;15334;49.494;8.410;2022-07-25T10:45:52;33.80;90.80
28010;DHT22;15334;49.494;8.410;2022-07-25T10:48:23;34.00;91.50
28010;DHT22;15334;49.494;8.410;2022-07-25T10:50:56;34.10;90.40
28010;DHT22;15334;49.494;8.410;2022-07-25T10:53:31;34.30;91.70
28010;DHT22;15334;49.494;8.410;2022-07-25T10:56:05;34.40;89.60
28010;DHT22;15334;49.494;8.410;2022-07-25T10:58:50;34.40;90.00
28010;DHT22;15334;49.494;8.410;2022-07-25T11:01:21;34.60;87.80
28010;DHT22;15334;49.494;8.410;2022-07-25T11:03:49;34.90;90.30
28010;DHT22;15334;49.494;8.410;2022-07-25T11:06:29;35.20;86.90
28010;DHT22;15334;49.494;8.410;2022-07-25T11:08:57;35.30;87.10
28010;DHT22;15334;49.494;8.410;2022-07-25T11:11:34;35.20;84.70
28010;DHT22;15334;49.494;8.410;2022-07-25T11:14:15;35.10;86.70
28010;DHT22;15334;49.494;8.410;2022-07-25T11:16:44;35.10;85.20
28010;DHT22;15334;49.494;8.410;2022-07-25T11:19:17;35.30;88.50
28010;DHT22;15334;49.494;8.410;2022-07-25T11:21:47;35.40;85.00
28010;DHT22;15334;49.494;8.410;2022-07-25T11:24:15;35.50;86.40
28010;DHT22;15334;49.494;8.410;2022-07-25T11:26:45;35.90;85.80
28010;DHT22;15334;49.494;8.410;2022-07-25T11:29:20;36.40;85.50
28010;DHT22;15334;49.494;8.410;2022-07-25T11:31:57;36.80;81.30
28010;DHT22;15334;49.494;8.410;2022-07-25T11:34:28;37.50;80.20
28010;DHT22;15334;49.494;8.410;2022-07-25T11:37:02;38.00;79.60
28010;DHT22;15334;49.494;8.410;2022-07-25T11:39:33;38.50;76.40
28010;DHT22;15334;49.494;8.410;2022-07-25T11:42:02;39.20;76.40
28010;DHT22;15334;49.494;8.410;2022-07-25T11:44:36;39.40;73.00
28010;DHT22;15334;49.494;8.410;2022-07-25T11:47:22;40.20;73.10
28010;DHT22;15334;49.494;8.410;2022-07-25T11:49:51;41.80;70.10
28010;DHT22;15334;49.494;8.410;2022-07-25T11:52:22;41.60;67.20
28010;DHT22;15334;49.494;8.410;2022-07-25T11:54:51;40.80;68.30
28010;DHT22;15334;49.494;8.410;2022-07-25T11:57:21;40.90;68.90
28010;DHT22;15334;49.494;8.410;2022-07-25T11:59:50;41.30;69.30
28010;DHT22;15334;49.494;8.410;2022-07-25T12:02:23;41.20;67.20
28010;DHT22;15334;49.494;8.410;2022-07-25T12:04:55;40.30;66.90
28010;DHT22;15334;49.494;8.410;2022-07-25T12:07:41;39.70;67.20
28010;DHT22;15334;49.494;8.410;2022-07-25T12:10:13;39.80;66.80
28010;DHT22;15334;49.494;8.410;2022-07-25T12:12:43;40.30;65.00
28010;DHT22;15334;49.494;8.410;2022-07-25T12:15:14;41.10;65.20
28010;DHT22;15334;49.494;8.410;2022-07-25T12:17:42;41.30;64.30
28010;DHT22;15334;49.494;8.410;2022-07-25T12:20:14;41.20;67.10
28010;DHT22;15334;49.494;8.410;2022-07-25T12:22:43;41.20;64.20
28010;DHT22;15334;49.494;8.410;2022-07-25T12:25:11;41.30;65.40
28010;DHT22;15334;49.494;8.410;2022-07-25T12:27:42;41.60;64.60
28010;DHT22;15334;49.494;8.410;2022-07-25T12:30:11;41.40;62.20
28010;DHT22;15334;49.494;8.410;2022-07-25T12:32:42;40.80;64.00
28010;DHT22;15334;49.494;8.410;2022-07-25T12:35:13;41.00;63.20
28010;DHT22;15334;49.494;8.410;2022-07-25T12:37:42;42.00;61.60
28010;DHT22;15334;49.494;8.410;2022-07-25T12:40:13;42.40;58.60
28010;DHT22;15334;49.494;8.410;2022-07-25T12:42:42;41.80;56.80
28010;DHT22;15334;49.494;8.410;2022-07-25T12:45:11;40.20;56.90
28010;DHT22;15334;49.494;8.410;2022-07-25T12:47:42;38.10;59.00
28010;DHT22;15334;49.494;8.410;2022-07-25T12:50:14;38.10;60.50
28010;DHT22;15334;49.494;8.410;2022-07-25T12:52:44;38.50;58.00
28010;DHT22;15334;49.494;8.410;2022-07-25T12:55:14;37.50;59.70
28010;DHT22;15334;49.494;8.410;2022-07-25T12:57:43;37.30;60.20
28010;DHT22;15334;49.494;8.410;2022-07-25T13:00:14;37.10;62.30
28010;DHT22;15334;49.494;8.410;2022-07-25T13:02:44;36.90;60.20
28010;DHT22;15334;49.494;8.410;2022-07-25T13:05:14;36.60;60.90
28010;DHT22;15334;49.494;8.410;2022-07-25T13:07:42;36.40;60.80
28010;DHT22;15334;49.494;8.410;2022-07-25T13:10:10;36.30;63.50
28010;DHT22;15334;49.494;8.410;2022-07-25T13:12:38;36.40;62.70
28010;DHT22;15334;49.494;8.410;2022-07-25T13:15:07;36.00;62.20
28010;DHT22;15334;49.494;8.410;2022-07-25T13:17:35;35.80;63.20
28010;DHT22;15334;49.494;8.410;2022-07-25T13:20:06;35.60;67.80
28010;DHT22;15334;49.494;8.410;2022-07-25T13:22:35;35.60;67.90
28010;DHT22;15334;49.494;8.410;2022-07-25T13:25:03;35.50;67.70
28010;DHT22;15334;49.494;8.410;2022-07-25T13:27:31;35.40;66.00
28010;DHT22;15334;49.494;8.410;2022-07-25T13:30:00;35.30;65.00
28010;DHT22;15334;49.494;8.410;2022-07-25T13:32:28;35.20;65.20
28010;DHT22;15334;49.494;8.410;2022-07-25T13:34:57;35.00;66.20
28010;DHT22;15334;49.494;8.410;2022-07-25T13:37:26;35.00;68.90
28010;DHT22;15334;49.494;8.410;2022-07-25T13:39:57;34.80;67.30
28010;DHT22;15334;49.494;8.410;2022-07-25T13:42:25;34.60;67.90
28010;DHT22;15334;49.494;8.410;2022-07-25T13:44:56;34.30;68.10
28010;DHT22;15334;49.494;8.410;2022-07-25T13:47:24;34.00;68.30
28010;DHT22;15334;49.494;8.410;2022-07-25T13:49:56;33.80;69.30
28010;DHT22;15334;49.494;8.410;2022-07-25T13:52:25;33.50;71.10
28010;DHT22;15334;49.494;8.410;2022-07-25T13:54:56;33.50;70.90
28010;DHT22;15334;49.494;8.410;2022-07-25T13:57:24;33.50;72.10
28010;DHT22;15334;49.494;8.410;2022-07-25T13:59:52;33.40;72.00
28010;DHT22;15334;49.494;8.410;2022-07-25T14:02:23;33.40;71.70
28010;DHT22;15334;49.494;8.410;2022-07-25T14:04:51;33.20;74.30
28010;DHT22;15334;49.494;8.410;2022-07-25T14:07:19;33.20;73.70
28010;DHT22;15334;49.494;8.410;2022-07-25T14:09:52;33.20;72.50
28010;DHT22;15334;49.494;8.410;2022-07-25T14:12:20;33.30;71.90
28010;DHT22;15334;49.494;8.410;2022-07-25T14:14:50;33.50;76.70
28010;DHT22;15334;49.494;8.410;2022-07-25T14:17:20;33.90;76.10
28010;DHT22;15334;49.494;8.410;2022-07-25T14:19:54;34.40;70.00
28010;DHT22;15334;49.494;8.410;2022-07-25T14:22:22;34.80;72.10
28010;DHT22;15334;49.494;8.410;2022-07-25T14:24:49;35.70;71.80
28010;DHT22;15334;49.494;8.410;2022-07-25T14:27:19;36.40;70.60
28010;DHT22;15334;49.494;8.410;2022-07-25T14:29:47;36.70;69.00
28010;DHT22;15334;49.494;8.410;2022-07-25T14:32:15;36.70;68.90
28010;DHT22;15334;49.494;8.410;2022-07-25T14:34:43;36.50;67.30
28010;DHT22;15334;49.494;8.410;2022-07-25T14:37:15;36.20;68.80
28010;DHT22;15334;49.494;8.410;2022-07-25T14:39:43;36.00;68.90
28010;DHT22;15334;49.494;8.410;2022-07-25T14:42:11;35.90;68.40
28010;DHT22;15334;49.494;8.410;2022-07-25T14:44:44;36.00;73.10
28010;DHT22;15334;49.494;8.410;2022-07-25T14:47:12;36.00;71.00
28010;DHT22;15334;49.494;8.410;2022-07-25T14:49:42;36.00;70.00
28010;DHT22;15334;49.494;8.410;2022-07-25T14:52:10;35.90;70.00
28010;DHT22;15334;49.494;8.410;2022-07-25T14:54:38;35.70;69.40
28010;DHT22;15334;49.494;8.410;2022-07-25T14:57:08;35.60;71.80
28010;DHT22;15334;49.494;8.410;2022-07-25T14:59:36;35.60;70.20
28010;DHT22;15334;49.494;8.410;2022-07-25T15:02:05;35.30;72.60
28010;DHT22;15334;49.494;8.410;2022-07-25T15:04:34;35.20;70.60
28010;DHT22;15334;49.494;8.410;2022-07-25T15:07:02;35.10;70.40
28010;DHT22;15334;49.494;8.410;2022-07-25T15:09:30;34.90;70.50
28010;DHT22;15334;49.494;8.410;2022-07-25T15:11:58;34.70;72.90
28010;DHT22;15334;49.494;8.410;2022-07-25T15:14:28;34.70;71.70
28010;DHT22;15334;49.494;8.410;2022-07-25T15:16:56;34.60;72.00
28010;DHT22;15334;49.494;8.410;2022-07-25T15:19:26;34.40;72.30
28010;DHT22;15334;49.494;8.410;2022-07-25T15:21:57;34.30;74.40
28010;DHT22;15334;49.494;8.410;2022-07-25T15:24:25;34.40;74.20
28010;DHT22;15334;49.494;8.410;2022-07-25T15:26:58;34.50;72.10
28010;DHT22;15334;49.494;8.410;2022-07-25T15:29:26;34.60;72.90
28010;DHT22;15334;49.494;8.410;2022-07-25T15:31:56;34.60;73.30
28010;DHT22;15334;49.494;8.410;2022-07-25T15:34:25;34.40;73.10
28010;DHT22;15334;49.494;8.410;2022-07-25T15:36:53;34.30;73.70
28010;DHT22;15334;49.494;8.410;2022-07-25T15:39:23;34.30;76.60
28010;DHT22;15334;49.494;8.410;2022-07-25T15:41:51;34.30;73.20
28010;DHT22;15334;49.494;8.410;2022-07-25T15:44:21;34.30;71.70
28010;DHT22;15334;49.494;8.410;2022-07-25T15:46:51;34.20;71.20